createdAt,value
2018-01-28T00:00:03.811Z,101923.82
2018-01-28T00:05:05.906Z,101928.22
2018-01-28T00:10:07.258Z,101943.91
2018-01-28T00:15:08.650Z,101929.08
2018-01-28T00:20:09.986Z,101927.84
2018-01-28T00:25:12.068Z,101908.64
2018-01-28T00:30:13.446Z,101930.41
2018-01-28T00:35:14.755Z,101913.02
2018-01-28T00:40:16.079Z,101890.81
2018-01-28T00:45:18.130Z,101882.62
2018-01-28T00:50:19.454Z,101889.19
2018-01-28T00:55:20.803Z,101876.16
2018-01-28T01:00:22.137Z,101888.78
2018-01-28T01:05:23.446Z,101895.26
2018-01-28T01:10:24.794Z,101909.21
2018-01-28T01:15:26.120Z,101914.01
2018-01-28T01:20:28.182Z,101911.36
2018-01-28T01:25:29.507Z,101900.09
2018-01-28T01:30:31.567Z,101919.20
2018-01-28T01:35:32.901Z,101907.01
2018-01-28T01:40:34.985Z,101890.48
2018-01-28T01:45:36.304Z,101888.78
2018-01-28T01:50:38.372Z,101890.98
2018-01-28T01:55:39.697Z,101896.20
2018-01-28T02:00:41.771Z,101904.41
2018-01-28T02:05:43.118Z,101905.33
2018-01-28T02:10:44.427Z,101906.16
2018-01-28T02:15:45.797Z,101896.14
2018-01-28T02:20:47.152Z,101911.78
2018-01-28T02:25:49.230Z,101883.50
2018-01-28T02:30:50.530Z,101894.42
2018-01-28T02:35:51.831Z,101896.10
2018-01-28T02:40:53.122Z,101904.42
2018-01-28T02:45:54.448Z,101908.78
2018-01-28T02:50:55.776Z,101917.92
2018-01-28T02:55:57.103Z,101917.47
2018-01-28T03:00:58.423Z,101911.36
2018-01-28T03:05:59.742Z,101921.36
2018-01-28T03:11:01.094Z,101918.72
2018-01-28T03:16:02.446Z,101907.89
2018-01-28T03:21:03.748Z,101906.17
2018-01-28T03:26:05.812Z,101911.84
2018-01-28T03:31:07.192Z,101904.45
2018-01-28T03:36:08.616Z,101923.98
2018-01-28T03:41:09.933Z,101915.63
2018-01-28T03:46:12.016Z,101917.43
2018-01-28T03:51:13.426Z,101914.39
2018-01-28T03:56:15.486Z,101938.28
2018-01-28T04:01:16.824Z,101922.57
2018-01-28T04:06:18.882Z,101943.86
2018-01-28T04:11:20.231Z,101934.73
2018-01-28T04:16:21.560Z,101925.02
2018-01-28T04:21:22.900Z,101942.92
2018-01-28T04:26:24.960Z,101955.45
2018-01-28T04:31:26.319Z,101937.91
2018-01-28T04:36:27.642Z,101958.87
2018-01-28T04:41:28.948Z,101973.59
2018-01-28T04:46:30.288Z,101983.61
2018-01-28T04:51:31.603Z,101992.19
2018-01-28T04:56:32.923Z,101992.59
2018-01-28T05:01:44.200Z,101999.50
2018-01-28T05:06:45.543Z,101996.89
2018-01-28T05:11:47.614Z,101996.48
2018-01-28T05:16:48.968Z,101990.81
2018-01-28T05:21:50.322Z,101991.20
2018-01-28T05:26:51.679Z,102005.45
2018-01-28T05:31:53.000Z,101998.52
2018-01-28T05:36:54.325Z,102003.68
2018-01-28T05:41:55.632Z,102039.81
2018-01-28T05:46:56.947Z,102032.47
2018-01-28T05:51:58.252Z,102055.95
2018-01-28T05:56:59.596Z,102042.41
2018-01-28T06:02:00.927Z,102052.80
2018-01-28T06:07:03.556Z,102054.50
2018-01-28T06:12:04.876Z,102058.91
2018-01-28T06:17:06.184Z,102049.73
2018-01-28T06:22:07.509Z,102052.28
2018-01-28T06:27:08.971Z,102051.91
2018-01-28T06:32:10.319Z,102057.10
2018-01-28T06:37:12.376Z,102061.86
2018-01-28T06:42:13.743Z,102065.45
2018-01-28T06:47:22.085Z,102087.98
2018-01-28T06:52:23.422Z,102107.19
2018-01-28T06:57:24.735Z,102092.75
2018-01-28T07:02:26.114Z,102093.15
2018-01-28T07:07:28.398Z,102092.72
2018-01-28T07:12:30.523Z,102090.98
2018-01-28T07:17:32.221Z,102110.61
2018-01-28T07:22:33.570Z,102115.28
2018-01-28T07:27:34.900Z,102128.44
2018-01-28T07:32:36.218Z,102127.48
2018-01-28T07:37:37.558Z,102134.38
2018-01-28T07:42:38.913Z,102124.82
2018-01-28T07:47:40.984Z,102122.52
2018-01-28T07:52:42.359Z,102131.73
2018-01-28T07:57:43.779Z,102034.08
2018-01-28T08:02:45.115Z,102123.02
2018-01-28T08:07:46.440Z,102110.75
2018-01-28T08:12:51.695Z,102105.99
2018-01-28T08:17:53.071Z,102112.47
2018-01-28T08:22:54.391Z,102135.06
2018-01-28T08:28:00.794Z,102148.55
2018-01-28T08:33:02.128Z,102159.97
2018-01-28T08:38:13.406Z,102157.83
2018-01-28T08:43:14.759Z,102155.19
2018-01-28T08:48:16.159Z,102148.55
2018-01-28T08:53:17.576Z,102133.13
2018-01-28T08:58:18.992Z,102142.69
2018-01-28T09:03:20.627Z,102147.84
2018-01-28T09:08:22.122Z,102145.00
2018-01-28T09:13:23.458Z,102147.61
2018-01-28T09:18:24.811Z,102159.37
2018-01-28T09:23:26.163Z,102174.09
2018-01-28T09:28:27.517Z,102182.82
2018-01-28T09:33:28.906Z,102184.78
2018-01-28T09:38:30.266Z,102176.22
2018-01-28T09:43:31.641Z,102175.12
2018-01-28T09:48:33.227Z,102182.98
2018-01-28T09:53:34.611Z,102179.39
2018-01-28T09:58:35.973Z,102192.28
2018-01-28T10:03:37.381Z,102187.01
2018-01-28T10:08:38.722Z,102212.78
2018-01-28T10:13:40.098Z,102211.81
2018-01-28T10:18:41.437Z,102202.89
2018-01-28T10:23:42.772Z,102202.89
2018-01-28T10:28:44.115Z,102218.00
2018-01-28T10:33:45.476Z,102212.09
2018-01-28T10:38:46.785Z,102226.47
2018-01-28T10:43:48.127Z,102216.35
2018-01-28T10:48:50.225Z,102213.32
2018-01-28T10:53:52.440Z,102209.80
2018-01-28T10:58:54.509Z,102178.84
2018-01-28T11:03:55.847Z,102184.69
2018-01-28T11:08:57.332Z,102201.57
2018-01-28T11:13:59.404Z,102187.19
2018-01-28T11:19:00.769Z,102187.53
2018-01-28T11:24:02.133Z,102192.20
2018-01-28T11:29:03.541Z,102193.45
2018-01-28T11:34:04.872Z,102207.95
2018-01-28T11:39:06.205Z,102202.19
2018-01-28T11:44:07.521Z,102210.50
2018-01-28T11:49:08.846Z,102200.23
2018-01-28T11:54:10.596Z,102195.35
2018-01-28T11:59:11.891Z,102197.25
2018-01-28T12:04:13.208Z,102204.70
2018-01-28T12:09:14.717Z,102200.28
2018-01-28T12:14:18.311Z,102192.47
2018-01-28T12:19:20.466Z,102190.63
2018-01-28T12:24:21.992Z,102186.13
2018-01-28T12:29:23.403Z,102193.72
2018-01-28T12:34:25.298Z,102191.73
2018-01-28T12:39:27.175Z,102181.94
2018-01-28T12:44:29.554Z,102175.47
2018-01-28T12:49:31.068Z,102159.77
2018-01-28T12:54:34.112Z,102150.45
2018-01-28T12:59:36.077Z,102163.95
2018-01-28T13:04:37.514Z,102171.20
2018-01-28T13:09:38.906Z,102172.48
2018-01-28T13:14:40.964Z,102181.39
2018-01-28T13:19:43.159Z,102193.00
2018-01-28T13:24:44.587Z,102182.69
2018-01-28T13:29:45.903Z,102172.92
2018-01-28T13:34:47.232Z,102168.27
2018-01-28T13:39:48.618Z,102154.77
2018-01-28T13:44:50.189Z,102172.45
2018-01-28T13:49:51.494Z,102176.59
2018-01-28T13:54:52.863Z,102174.84
2018-01-28T13:59:54.662Z,102187.34
2018-01-28T14:04:55.991Z,102191.95
2018-01-28T14:09:57.879Z,102199.27
2018-01-28T14:14:59.230Z,102198.09
2018-01-28T14:20:01.362Z,102190.67
2018-01-28T14:25:02.772Z,102178.78
2018-01-28T14:30:04.200Z,102171.77
2018-01-28T14:35:05.578Z,102181.48
2018-01-28T14:40:07.452Z,102181.17
2018-01-28T14:45:08.888Z,102172.92
2018-01-28T14:50:10.228Z,102161.40
2018-01-28T14:55:11.601Z,102150.38
2018-01-28T15:00:12.937Z,102147.83
2018-01-28T15:05:14.273Z,102129.53
2018-01-28T15:10:16.139Z,102114.95
2018-01-28T15:15:18.231Z,102115.05
2018-01-28T15:20:19.618Z,102114.55
2018-01-28T15:25:20.939Z,102111.58
2018-01-28T15:30:23.039Z,102112.23
2018-01-28T15:35:24.357Z,102111.96
2018-01-28T15:40:25.683Z,102106.30
2018-01-28T15:45:27.038Z,102118.46
2018-01-28T15:50:28.412Z,102111.22
2018-01-28T15:55:30.504Z,102107.28
2018-01-28T16:00:31.870Z,102099.00
2018-01-28T16:05:33.235Z,102106.88
2018-01-28T16:10:34.553Z,102094.31
2018-01-28T16:15:35.888Z,102088.98
2018-01-28T16:20:37.211Z,102088.55
2018-01-28T16:25:38.540Z,102089.09
2018-01-28T16:30:39.876Z,102100.84
2018-01-28T16:35:41.272Z,102100.00
2018-01-28T16:40:42.593Z,102098.89
2018-01-28T16:45:43.947Z,102109.53
2018-01-28T16:50:45.284Z,102112.77
2018-01-28T16:55:46.602Z,102112.73
2018-01-28T17:00:47.942Z,102112.55
2018-01-28T17:05:49.293Z,102095.55
2018-01-28T17:10:50.607Z,102085.08
2018-01-28T17:15:51.926Z,102059.33
2018-01-28T17:20:53.986Z,102061.08
2018-01-28T17:25:55.336Z,102080.23
2018-01-28T17:30:56.659Z,102097.61
2018-01-28T17:35:57.956Z,102105.17
2018-01-28T17:40:59.306Z,102101.70
2018-01-28T17:46:01.369Z,102094.95
2018-01-28T17:51:02.731Z,102112.14
2018-01-28T17:56:04.040Z,102102.95
2018-01-28T18:01:05.379Z,102106.33
2018-01-28T18:06:07.433Z,102108.48
2018-01-28T18:11:08.887Z,102108.23
2018-01-28T18:16:10.936Z,102106.48
2018-01-28T18:21:12.308Z,102108.61
2018-01-28T18:26:13.644Z,102105.95
2018-01-28T18:31:14.980Z,102106.23
2018-01-28T18:36:16.360Z,102111.55
2018-01-28T18:41:20.028Z,102100.33
2018-01-28T18:46:21.373Z,102106.27
2018-01-28T18:51:22.764Z,102102.05
2018-01-28T18:56:24.184Z,102100.67
2018-01-28T19:01:32.419Z,102104.23
2018-01-28T19:06:35.474Z,102105.55
2018-01-28T19:11:37.686Z,102110.83
2018-01-28T19:16:40.103Z,102113.86
2018-01-28T19:21:41.450Z,102124.42
2018-01-28T19:26:44.440Z,102112.61
2018-01-28T19:31:46.118Z,102122.23
2018-01-28T19:36:47.468Z,102120.58
2018-01-28T19:41:49.607Z,102136.36
2018-01-28T19:46:51.726Z,102139.73
2018-01-28T19:51:54.332Z,102127.77
2018-01-28T19:56:56.159Z,102121.83
2018-01-28T20:01:57.920Z,102138.39
2018-01-28T20:06:59.673Z,102124.36
2018-01-28T20:12:01.043Z,102128.67
2018-01-28T20:17:02.390Z,102137.05
2018-01-28T20:22:04.945Z,102134.89
2018-01-28T20:27:06.316Z,102130.30
2018-01-28T20:32:07.674Z,102122.14
2018-01-28T20:37:09.028Z,102122.61
2018-01-28T20:42:10.383Z,102121.27
2018-01-28T20:47:11.736Z,102115.55
2018-01-28T20:52:13.061Z,102118.86
2018-01-28T20:57:15.175Z,102125.48
2018-01-28T21:02:16.563Z,102124.58
2018-01-28T21:07:17.983Z,102125.86
2018-01-28T21:12:19.361Z,102124.58
2018-01-28T21:17:20.734Z,102131.89
2018-01-28T21:22:22.902Z,102128.45
2018-01-28T21:27:24.243Z,102127.23
2018-01-28T21:32:25.596Z,102125.11
2018-01-28T21:37:26.944Z,102134.20
2018-01-28T21:42:28.335Z,102115.11
2018-01-28T21:47:29.704Z,102121.11
2018-01-28T21:52:31.060Z,102129.08
2018-01-28T21:57:32.683Z,102116.77
2018-01-28T22:02:34.202Z,102119.80
2018-01-28T22:07:35.908Z,102114.02
2018-01-28T22:12:37.448Z,102108.79
2018-01-28T22:17:38.934Z,102109.83
2018-01-28T22:22:40.354Z,102102.77
2018-01-28T22:27:41.709Z,102113.67
2018-01-28T22:32:43.024Z,102118.73
2018-01-28T22:37:44.475Z,102101.09
2018-01-28T22:42:45.917Z,102109.84
2018-01-28T22:47:47.310Z,102108.05
2018-01-28T22:52:48.949Z,102109.91
2018-01-28T22:57:50.293Z,102113.04
2018-01-28T23:02:51.631Z,102102.53
2018-01-28T23:07:53.150Z,102106.84
2018-01-28T23:12:55.369Z,102113.54
2018-01-28T23:17:56.681Z,102117.01
2018-01-28T23:22:57.999Z,102121.27
2018-01-28T23:27:59.323Z,102127.20
2018-01-28T23:33:00.663Z,102125.29
2018-01-28T23:38:02.035Z,102118.48
2018-01-28T23:43:03.384Z,102125.83
2018-01-28T23:48:04.731Z,102130.58
2018-01-28T23:53:06.042Z,102138.45
2018-01-28T23:58:07.407Z,102127.55
